Time;durP1;ratioP1;P1;durP2;ratioP2;P2;SDS_P1;SDS_P2;PMS_P1;PMS_P2;Temp;Humidity;BMP_temperature;BMP_pressure;BME280_temperature;BME280_humidity;BME280_pressure;Samples;Min_cycle;Max_cycle;Signal;HPM_P1;HPM_P2
2022/06/12 00:00:24;;;;;;;7.60;2.78;;;13.00;83.30;;;;;;5108255;27;20034;-84
2022/06/12 00:02:49;;;;;;;14.00;2.90;;;13.00;83.40;;;;;;5085430;28;20128;-84
2022/06/12 00:05:18;;;;;;;10.75;3.13;;;12.90;83.80;;;;;;5095263;28;20118;-84
2022/06/12 00:07:44;;;;;;;18.08;3.20;;;12.90;84.10;;;;;;5083956;28;20028;-83
2022/06/12 00:10:14;;;;;;;8.80;2.88;;;12.80;84.90;;;;;;5090381;28;20096;-84
2022/06/12 00:12:41;;;;;;;12.43;2.75;;;12.80;85.50;;;;;;5085388;28;20189;-84
2022/06/12 00:15:09;;;;;;;6.68;2.40;;;12.70;84.60;;;;;;5087839;28;20048;-84
2022/06/12 00:17:35;;;;;;;11.45;3.20;;;12.60;85.10;;;;;;5111747;28;20036;-84
2022/06/12 00:20:00;;;;;;;13.20;3.05;;;12.60;84.90;;;;;;5095195;28;20035;-84
2022/06/12 00:22:26;;;;;;;10.75;2.92;;;12.60;85.00;;;;;;5087649;28;20036;-84
2022/06/12 00:24:54;;;;;;;10.38;2.75;;;12.50;84.70;;;;;;5107119;28;20035;-83
2022/06/12 00:27:24;;;;;;;10.80;2.78;;;12.50;84.70;;;;;;5118359;27;20027;-84
2022/06/12 00:29:51;;;;;;;10.13;2.75;;;12.50;85.90;;;;;;5091596;28;20085;-84
2022/06/12 00:32:18;;;;;;;15.32;3.40;;;12.40;86.30;;;;;;5094954;28;20027;-84
2022/06/12 00:34:53;;;;;;;11.95;2.97;;;12.30;86.50;;;;;;5092900;28;20019;-83
2022/06/12 00:37:22;;;;;;;15.85;3.00;;;12.30;86.20;;;;;;5112114;28;20459;-83
2022/06/12 00:39:49;;;;;;;10.60;2.72;;;12.30;86.50;;;;;;5095551;28;20398;-84
2022/06/12 00:42:26;;;;;;;11.57;3.03;;;12.20;86.00;;;;;;5083157;27;20035;-83
2022/06/12 00:44:53;;;;;;;11.48;3.00;;;12.20;86.80;;;;;;5107341;28;20047;-84
2022/06/12 00:47:19;;;;;;;8.35;2.60;;;12.10;87.20;;;;;;5108906;28;20483;-84
2022/06/12 00:49:48;;;;;;;7.28;3.05;;;12.10;87.30;;;;;;5093926;27;20027;-84
2022/06/12 00:52:29;;;;;;;10.82;3.20;;;12.10;87.00;;;;;;5092666;28;20031;-84
2022/06/12 00:54:59;;;;;;;16.08;2.85;;;12.10;87.10;;;;;;5095996;28;20039;-83
2022/06/12 00:57:26;;;;;;;8.25;3.08;;;12.10;87.10;;;;;;5087433;28;20571;-84
2022/06/12 01:00:14;;;;;;;8.85;3.17;;;12.10;87.20;;;;;;5099164;28;20104;-83
2022/06/12 01:02:41;;;;;;;12.23;3.58;;;12.00;86.90;;;;;;5108502;28;20031;-84
2022/06/12 01:07:59;;;;;;;10.90;3.20;;;11.90;87.90;;;;;;5108933;27;20035;-83
2022/06/12 01:10:28;;;;;;;10.73;2.92;;;11.80;88.10;;;;;;5091119;28;20028;-84
2022/06/12 01:13:06;;;;;;;8.40;2.88;;;11.80;88.00;;;;;;5089327;28;20527;-83
2022/06/12 01:15:36;;;;;;;9.88;2.90;;;11.90;88.50;;;;;;5109992;28;20051;-84
2022/06/12 01:18:05;;;;;;;11.07;3.47;;;11.80;87.80;;;;;;5094850;28;20156;-84
2022/06/12 01:20:37;;;;;;;11.82;2.80;;;11.80;87.60;;;;;;5094256;28;20517;-84
2022/06/12 01:23:24;;;;;;;16.20;3.55;;;11.70;87.50;;;;;;5092653;28;20051;-83
2022/06/12 01:26:08;;;;;;;10.15;2.60;;;11.60;88.10;;;;;;5093820;28;20413;-84
2022/06/12 01:28:40;;;;;;;11.50;3.25;;;11.70;88.60;;;;;;5087567;28;20041;-84
2022/06/12 01:31:18;;;;;;;9.63;3.38;;;11.60;88.70;;;;;;5090849;28;20497;-83
2022/06/12 01:33:56;;;;;;;9.48;3.60;;;11.70;88.90;;;;;;5110488;28;20805;-83
2022/06/12 01:36:39;;;;;;;11.18;3.22;;;11.60;88.60;;;;;;5091789;28;20028;-83
2022/06/12 01:39:39;;;;;;;8.15;2.92;;;11.60;88.80;;;;;;5108044;28;20054;-84
2022/06/12 01:42:48;;;;;;;15.85;3.50;;;11.60;88.80;;;;;;5108653;28;20028;-84
2022/06/12 01:45:36;;;;;;;16.80;3.90;;;11.60;89.20;;;;;;5047895;28;20506;-83
2022/06/12 01:48:02;;;;;;;11.43;3.00;;;11.60;89.40;;;;;;5092584;28;20040;-83
2022/06/12 01:50:39;;;;;;;12.40;3.22;;;11.60;89.40;;;;;;5092455;28;20023;-83
2022/06/12 01:53:17;;;;;;;17.10;3.75;;;11.60;89.80;;;;;;5095083;28;20047;-84
2022/06/12 01:55:49;;;;;;;13.20;3.20;;;11.60;89.60;;;;;;5091840;28;20028;-83
2022/06/12 01:58:26;;;;;;;12.13;3.15;;;11.60;89.40;;;;;;5095402;28;20053;-83
2022/06/12 02:01:24;;;;;;;9.82;2.67;;;11.60;89.40;;;;;;5092379;28;20061;-84
2022/06/12 02:04:06;;;;;;;9.20;3.50;;;11.50;89.10;;;;;;5066813;28;20040;-84
2022/06/12 02:06:39;;;;;;;15.40;3.92;;;11.50;89.30;;;;;;5095442;28;20020;-84
2022/06/12 02:09:20;;;;;;;13.57;3.67;;;11.60;89.60;;;;;;5103753;28;20144;-85
2022/06/12 02:15:19;;;;;;;15.60;3.70;;;11.60;89.60;;;;;;5113226;28;20058;-84
2022/06/12 02:17:51;;;;;;;16.00;3.97;;;11.60;89.60;;;;;;5083616;28;20062;-84
2022/06/12 02:20:19;;;;;;;10.50;3.40;;;11.60;89.70;;;;;;5090521;28;20027;-84
2022/06/12 02:22:46;;;;;;;12.50;3.67;;;11.60;89.70;;;;;;5092743;28;20019;-83
2022/06/12 02:25:29;;;;;;;11.43;3.00;;;11.50;89.60;;;;;;5111617;28;20526;-83
2022/06/12 02:28:08;;;;;;;12.63;3.85;;;11.40;89.50;;;;;;5111472;28;20028;-84
2022/06/12 02:30:38;;;;;;;9.90;3.45;;;11.40;89.60;;;;;;5093120;28;20028;-84
2022/06/12 02:33:11;;;;;;;11.63;3.17;;;11.40;89.60;;;;;;5085923;28;20222;-84
2022/06/12 02:35:43;;;;;;;9.63;3.13;;;11.30;89.60;;;;;;5089504;28;20028;-84
2022/06/12 02:38:23;;;;;;;11.00;3.25;;;11.30;89.80;;;;;;5109744;28;20028;-83
2022/06/12 02:40:52;;;;;;;15.90;3.30;;;11.20;89.50;;;;;;5083911;28;20124;-84
2022/06/12 02:43:23;;;;;;;15.38;3.78;;;11.10;89.60;;;;;;5088954;28;20522;-84
2022/06/12 02:45:54;;;;;;;10.18;3.30;;;11.10;89.40;;;;;;5110014;28;20028;-84
2022/06/12 02:48:20;;;;;;;13.95;3.80;;;11.10;90.40;;;;;;5081468;28;20032;-84
2022/06/12 02:51:17;;;;;;;9.88;3.33;;;11.00;90.80;;;;;;5090608;28;20077;-84
2022/06/12 02:53:49;;;;;;;14.38;3.70;;;11.00;90.40;;;;;;5089863;28;20032;-84
2022/06/12 02:56:42;;;;;;;11.95;3.25;;;11.00;90.30;;;;;;5104853;28;20055;-84
2022/06/12 02:59:31;;;;;;;14.35;3.35;;;11.10;90.90;;;;;;5092401;28;20054;-84
2022/06/12 03:02:11;;;;;;;10.15;2.97;;;11.00;90.30;;;;;;5095719;28;20028;-84
2022/06/12 03:04:47;;;;;;;11.65;3.50;;;10.90;90.10;;;;;;5082778;28;20028;-83
2022/06/12 03:07:13;;;;;;;11.68;3.35;;;11.00;89.60;;;;;;5121408;27;20090;-84
2022/06/12 03:09:39;;;;;;;10.88;3.63;;;10.90;89.50;;;;;;5105861;28;20036;-83
2022/06/12 03:12:06;;;;;;;11.20;3.42;;;11.00;89.60;;;;;;5091752;27;20067;-84
2022/06/12 03:14:32;;;;;;;13.23;4.13;;;10.90;89.60;;;;;;5091100;28;20034;-83
2022/06/12 03:16:57;;;;;;;14.98;3.38;;;10.90;89.50;;;;;;5097427;28;20038;-84
2022/06/12 03:19:30;;;;;;;9.55;3.38;;;10.90;89.90;;;;;;5107973;28;20692;-84
2022/06/12 03:22:13;;;;;;;11.10;3.50;;;10.90;90.20;;;;;;5081946;28;20108;-84
2022/06/12 03:25:24;;;;;;;13.13;3.42;;;10.80;90.40;;;;;;5114490;27;20038;-84
2022/06/12 03:28:04;;;;;;;14.30;3.88;;;10.80;90.60;;;;;;5099037;27;20035;-83
2022/06/12 03:30:37;;;;;;;10.20;3.10;;;10.90;91.40;;;;;;5095371;28;20032;-84
2022/06/12 03:33:18;;;;;;;11.48;4.00;;;10.80;90.90;;;;;;5099930;27;20114;-84
2022/06/12 03:36:02;;;;;;;10.35;3.75;;;10.80;90.40;;;;;;5093219;28;20028;-84
2022/06/12 03:38:39;;;;;;;9.68;3.28;;;10.90;90.50;;;;;;5104165;28;20062;-83
2022/06/12 03:41:20;;;;;;;10.43;2.88;;;10.80;90.50;;;;;;5093626;28;20019;-83
2022/06/12 03:44:12;;;;;;;12.23;3.63;;;10.90;90.30;;;;;;5106111;28;20112;-84
2022/06/12 03:47:03;;;;;;;12.60;3.30;;;10.90;90.40;;;;;;5096417;28;20368;-84
2022/06/12 03:49:42;;;;;;;12.20;3.03;;;10.90;90.80;;;;;;5092511;27;20024;-84
2022/06/12 03:52:14;;;;;;;18.58;4.22;;;11.00;90.70;;;;;;5089233;28;20043;-84
2022/06/12 03:54:55;;;;;;;8.70;3.70;;;10.90;90.70;;;;;;5113541;28;20043;-84
2022/06/12 04:00:34;;;;;;;9.95;3.05;;;11.00;90.50;;;;;;5110844;28;20035;-84
2022/06/12 04:03:10;;;;;;;8.23;2.85;;;11.10;90.70;;;;;;5111367;28;20360;-84
2022/06/12 04:05:39;;;;;;;11.77;3.30;;;11.10;90.70;;;;;;5108740;28;20061;-84
2022/06/12 04:08:09;;;;;;;6.25;3.17;;;11.10;90.30;;;;;;5099512;28;20028;-83
2022/06/12 04:10:37;;;;;;;11.48;3.47;;;11.10;90.70;;;;;;5089885;28;20111;-84
2022/06/12 04:13:06;;;;;;;9.40;3.30;;;11.10;91.10;;;;;;5111830;28;20035;-84
2022/06/12 04:15:33;;;;;;;14.52;3.78;;;11.10;91.70;;;;;;5115452;27;20109;-84
2022/06/12 04:18:00;;;;;;;9.23;3.10;;;11.20;91.80;;;;;;5094200;28;20407;-83
2022/06/12 04:20:49;;;;;;;13.70;3.30;;;11.20;91.90;;;;;;5087158;28;20089;-83
2022/06/12 04:23:37;;;;;;;10.95;3.97;;;11.20;91.80;;;;;;5094291;27;20031;-83
2022/06/12 04:26:13;;;;;;;12.55;4.30;;;11.30;91.70;;;;;;5108176;28;20031;-83
2022/06/12 04:28:42;;;;;;;13.48;3.85;;;11.30;91.50;;;;;;5100287;28;20035;-83
2022/06/12 04:31:18;;;;;;;14.30;3.20;;;11.40;91.40;;;;;;5090880;28;20027;-83
2022/06/12 04:34:14;;;;;;;14.27;3.72;;;11.40;91.50;;;;;;5092587;28;20468;-83
2022/06/12 04:36:41;;;;;;;12.02;3.67;;;11.50;91.40;;;;;;5110035;27;20027;-83
2022/06/12 04:39:08;;;;;;;11.60;3.65;;;11.60;91.30;;;;;;5105453;27;20057;-83
2022/06/12 04:41:35;;;;;;;11.73;3.42;;;11.60;91.10;;;;;;5096388;27;20023;-83
2022/06/12 04:44:02;;;;;;;14.55;3.70;;;11.60;90.40;;;;;;5090862;28;20023;-83
2022/06/12 04:46:28;;;;;;;10.32;2.97;;;11.70;90.20;;;;;;5111374;28;20028;-83
2022/06/12 04:48:59;;;;;;;11.32;3.42;;;11.80;90.40;;;;;;5095809;28;20091;-83
2022/06/12 04:51:25;;;;;;;10.38;3.38;;;11.90;90.60;;;;;;5091620;28;20035;-83
2022/06/12 04:53:52;;;;;;;11.60;3.80;;;12.00;90.50;;;;;;5103785;28;20087;-83
2022/06/12 04:56:20;;;;;;;8.45;3.15;;;12.10;90.60;;;;;;5096150;28;20035;-83
2022/06/12 04:58:47;;;;;;;8.85;3.70;;;12.20;91.00;;;;;;5096134;28;20019;-83
2022/06/12 05:01:13;;;;;;;12.90;4.20;;;12.30;91.00;;;;;;5093353;28;20042;-82
2022/06/12 05:03:40;;;;;;;9.40;3.55;;;12.40;90.60;;;;;;5097553;28;20026;-83
2022/06/12 05:06:06;;;;;;;16.33;4.10;;;12.60;90.30;;;;;;5097159;28;20152;-83
2022/06/12 05:08:33;;;;;;;10.63;3.63;;;12.60;89.90;;;;;;5114200;28;20020;-83
2022/06/12 05:10:58;;;;;;;9.93;4.43;;;12.80;90.00;;;;;;5093424;28;20039;-84
2022/06/12 05:13:24;;;;;;;12.60;4.10;;;12.90;89.80;;;;;;5092766;28;20038;-83
2022/06/12 05:15:49;;;;;;;9.57;3.60;;;13.00;89.50;;;;;;5096863;28;20050;-83
2022/06/12 05:18:18;;;;;;;11.90;3.97;;;13.10;89.40;;;;;;5094845;28;20118;-83
2022/06/12 05:20:45;;;;;;;17.05;3.75;;;13.20;89.30;;;;;;5094841;28;20027;-83
2022/06/12 05:23:10;;;;;;;12.75;3.45;;;13.20;89.30;;;;;;5095889;28;20451;-83
2022/06/12 05:25:36;;;;;;;10.65;3.78;;;13.40;89.20;;;;;;5094825;28;20067;-83
2022/06/12 05:28:03;;;;;;;8.70;2.97;;;13.50;89.20;;;;;;5111539;27;20027;-83
2022/06/12 05:30:31;;;;;;;9.40;3.22;;;13.80;88.60;;;;;;5092789;28;20055;-84
2022/06/12 05:32:59;;;;;;;10.10;3.75;;;14.10;88.10;;;;;;5095532;28;20027;-83
2022/06/12 05:35:26;;;;;;;10.32;3.30;;;14.30;87.60;;;;;;5102154;28;20551;-83
2022/06/12 05:37:52;;;;;;;13.98;3.30;;;14.40;87.40;;;;;;5089021;28;20023;-83
2022/06/12 05:40:22;;;;;;;14.55;3.47;;;14.60;86.80;;;;;;5083559;28;20047;-83
2022/06/12 05:42:48;;;;;;;9.27;2.88;;;14.60;86.10;;;;;;5081436;28;20035;-83
2022/06/12 05:45:16;;;;;;;9.73;2.90;;;14.80;85.60;;;;;;5094016;28;20160;-83
2022/06/12 05:47:59;;;;;;;10.65;3.13;;;15.00;85.40;;;;;;5109939;28;20485;-83
2022/06/12 05:50:29;;;;;;;12.65;2.95;;;15.10;85.00;;;;;;5095866;28;20028;-83
2022/06/12 05:52:55;;;;;;;8.25;3.00;;;15.40;83.90;;;;;;5087461;28;20071;-84
2022/06/12 05:55:21;;;;;;;8.43;2.97;;;15.60;84.50;;;;;;5083645;28;20492;-84
2022/06/12 05:57:46;;;;;;;7.82;2.50;;;15.80;83.60;;;;;;5091082;28;20478;-84
2022/06/12 06:00:25;;;;;;;12.63;3.30;;;15.90;83.20;;;;;;5092825;28;20038;-84
2022/06/12 06:02:51;;;;;;;6.95;2.33;;;16.00;82.00;;;;;;5091321;28;20027;-84
2022/06/12 06:05:17;;;;;;;10.27;2.33;;;16.10;80.70;;;;;;5110647;28;20024;-84
2022/06/12 06:07:43;;;;;;;13.93;2.60;;;16.30;77.80;;;;;;5082345;28;20028;-84
2022/06/12 06:10:14;;;;;;;10.10;2.78;;;16.40;78.40;;;;;;5104063;28;20035;-84
2022/06/12 06:12:40;;;;;;;11.63;1.95;;;16.60;78.40;;;;;;5103705;28;20532;-84
2022/06/12 06:15:06;;;;;;;9.70;2.15;;;16.70;77.10;;;;;;5092603;28;20024;-84
2022/06/12 06:17:31;;;;;;;6.75;2.08;;;16.90;76.40;;;;;;5104362;28;20032;-84
2022/06/12 06:19:57;;;;;;;9.23;2.38;;;17.00;75.80;;;;;;5110009;28;20043;-84
2022/06/12 06:22:22;;;;;;;13.60;2.03;;;17.00;75.00;;;;;;5092050;28;20019;-85
2022/06/12 06:24:48;;;;;;;13.00;2.25;;;17.10;73.50;;;;;;5088404;28;20440;-84
2022/06/12 06:27:15;;;;;;;9.82;2.50;;;17.30;74.50;;;;;;5087324;28;20069;-84
2022/06/12 06:29:42;;;;;;;10.88;2.30;;;17.40;72.90;;;;;;5092463;28;20027;-85
2022/06/12 06:32:10;;;;;;;11.20;2.50;;;17.50;71.70;;;;;;5094097;28;20039;-84
2022/06/12 06:34:36;;;;;;;8.73;2.38;;;17.80;71.50;;;;;;5087603;27;20023;-84
2022/06/12 06:37:04;;;;;;;10.68;2.10;;;17.90;70.90;;;;;;5095196;28;20532;-84
2022/06/12 06:39:30;;;;;;;9.27;2.10;;;17.90;70.00;;;;;;5097046;27;20479;-84
2022/06/12 06:41:55;;;;;;;12.48;2.30;;;18.00;69.20;;;;;;5091748;28;20062;-84
2022/06/12 06:47:06;;;;;;;7.63;1.83;;;18.20;68.20;;;;;;5108347;27;20033;-85
2022/06/12 06:49:31;;;;;;;9.88;2.17;;;18.50;70.30;;;;;;5098196;28;20383;-84
2022/06/12 06:51:57;;;;;;;8.82;1.90;;;18.50;67.60;;;;;;5095036;28;20089;-85
2022/06/12 06:54:23;;;;;;;8.55;1.83;;;18.60;67.50;;;;;;5080199;28;20371;-85
2022/06/12 06:56:49;;;;;;;10.50;2.03;;;18.80;66.80;;;;;;5076421;28;20076;-84
2022/06/12 06:59:15;;;;;;;9.30;1.92;;;18.80;66.30;;;;;;5101657;28;20121;-86
2022/06/12 07:01:44;;;;;;;8.07;1.67;;;18.90;64.20;;;;;;5077425;28;20071;-86
2022/06/12 07:04:12;;;;;;;6.70;1.60;;;19.00;64.50;;;;;;5097649;27;20066;-85
2022/06/12 07:06:37;;;;;;;8.57;2.10;;;19.00;63.50;;;;;;5076886;28;20471;-85
2022/06/12 07:09:07;;;;;;;6.25;1.50;;;19.10;64.90;;;;;;5087015;28;20104;-85
2022/06/12 07:11:33;;;;;;;4.78;1.52;;;19.10;61.50;;;;;;5085949;28;20072;-85
2022/06/12 07:13:58;;;;;;;7.60;1.70;;;19.10;59.90;;;;;;5093418;28;20526;-85
2022/06/12 07:16:26;;;;;;;7.55;1.67;;;19.30;61.50;;;;;;5104028;28;20036;-85
2022/06/12 07:18:52;;;;;;;5.03;1.60;;;19.30;59.40;;;;;;5108582;27;20026;-85
2022/06/12 07:21:17;;;;;;;9.73;1.65;;;19.50;59.90;;;;;;5091727;28;20745;-85
2022/06/12 07:23:44;;;;;;;7.22;1.60;;;19.50;59.10;;;;;;5092479;28;20046;-85
2022/06/12 07:26:17;;;;;;;8.30;1.58;;;19.40;58.50;;;;;;5097986;27;20020;-85
2022/06/12 07:28:43;;;;;;;9.35;1.40;;;19.70;58.70;;;;;;5104731;27;20502;-86
2022/06/12 07:31:09;;;;;;;7.68;1.75;;;19.60;56.60;;;;;;5111525;27;20023;-85
2022/06/12 07:33:37;;;;;;;6.78;1.80;;;19.80;55.50;;;;;;5093560;28;20036;-86
2022/06/12 07:36:07;;;;;;;5.50;1.52;;;19.90;57.00;;;;;;5084879;28;20019;-86
2022/06/12 07:38:33;;;;;;;7.72;1.40;;;20.00;56.10;;;;;;5094094;28;20026;-86
2022/06/12 07:41:01;;;;;;;10.43;1.55;;;20.00;56.30;;;;;;5105416;28;20835;-86
2022/06/12 07:43:28;;;;;;;8.10;1.45;;;20.00;54.70;;;;;;5088625;28;20570;-85
2022/06/12 07:45:55;;;;;;;5.75;1.33;;;20.10;56.20;;;;;;5103122;27;20031;-86
2022/06/12 07:48:22;;;;;;;6.90;1.45;;;20.30;55.80;;;;;;5091051;28;20055;-85
2022/06/12 07:50:48;;;;;;;5.30;1.10;;;20.30;55.50;;;;;;5103811;27;20032;-85
2022/06/12 07:53:33;;;;;;;4.32;1.23;;;20.40;55.50;;;;;;5085962;28;20315;-85
2022/06/12 07:55:59;;;;;;;14.77;1.65;;;20.60;56.80;;;;;;5088582;28;20032;-85
2022/06/12 07:58:27;;;;;;;7.75;1.42;;;20.50;53.30;;;;;;5087755;28;20035;-86
2022/06/12 08:00:58;;;;;;;8.43;1.40;;;20.70;53.30;;;;;;5083523;28;20031;-85
2022/06/12 08:03:25;;;;;;;6.47;1.45;;;21.00;54.40;;;;;;5109899;28;20135;-85
2022/06/12 08:05:51;;;;;;;9.48;1.42;;;21.40;53.90;;;;;;5112202;27;20067;-85
2022/06/12 08:08:17;;;;;;;8.13;1.35;;;21.50;53.40;;;;;;5091002;28;20592;-85
2022/06/12 08:10:43;;;;;;;4.00;1.25;;;21.40;52.70;;;;;;5102427;28;20032;-85
2022/06/12 08:13:12;;;;;;;10.32;1.67;;;21.50;51.90;;;;;;5094701;27;20379;-85
2022/06/12 08:15:40;;;;;;;6.15;1.35;;;21.50;52.30;;;;;;5103413;27;20411;-86
2022/06/12 08:18:06;;;;;;;5.25;1.13;;;21.50;50.40;;;;;;5087251;28;20039;-85
2022/06/12 08:20:35;;;;;;;6.43;1.20;;;21.80;52.40;;;;;;5093708;28;20028;-85
2022/06/12 08:23:06;;;;;;;7.05;1.30;;;21.80;51.10;;;;;;5089357;28;20020;-85
2022/06/12 08:25:36;;;;;;;6.75;1.27;;;21.80;51.80;;;;;;5088393;28;20057;-85
2022/06/12 08:28:02;;;;;;;7.93;1.20;;;22.00;50.80;;;;;;5084684;28;20028;-86
2022/06/12 08:30:31;;;;;;;4.40;1.20;;;22.00;49.30;;;;;;5093371;28;20031;-86
2022/06/12 08:32:57;;;;;;;4.93;1.30;;;22.10;47.90;;;;;;5086533;28;20527;-85
2022/06/12 08:35:27;;;;;;;6.63;1.52;;;22.00;50.10;;;;;;5102999;28;20047;-85
2022/06/12 08:37:53;;;;;;;6.33;1.43;;;22.50;49.10;;;;;;5108751;28;20433;-86
2022/06/12 08:40:38;;;;;;;5.65;1.40;;;21.90;46.30;;;;;;5109211;27;20049;-85
2022/06/12 08:43:15;;;;;;;10.50;1.65;;;22.50;48.70;;;;;;5081656;27;20475;-85
2022/06/12 08:45:45;;;;;;;5.13;1.20;;;22.50;47.50;;;;;;5104388;28;20077;-85
2022/06/12 08:48:18;;;;;;;5.63;1.20;;;21.90;49.50;;;;;;5089091;27;20416;-85
2022/06/12 08:50:57;;;;;;;4.72;1.65;;;21.80;49.80;;;;;;5084433;28;20063;-84
2022/06/12 08:53:30;;;;;;;8.48;1.38;;;22.10;49.50;;;;;;5092320;28;20035;-85
2022/06/12 08:56:26;;;;;;;6.50;1.25;;;21.90;48.70;;;;;;5107067;28;20058;-85
2022/06/12 08:59:10;;;;;;;8.05;1.23;;;22.00;46.90;;;;;;5079673;28;20040;-85
2022/06/12 09:01:41;;;;;;;3.90;1.40;;;22.40;47.90;;;;;;5101008;28;20323;-85
2022/06/12 09:04:10;;;;;;;10.90;1.80;;;22.50;48.20;;;;;;5082905;27;20020;-85
2022/06/12 09:07:06;;;;;;;5.63;1.88;;;22.60;48.80;;;;;;5084542;27;20016;-85
2022/06/12 09:09:46;;;;;;;7.00;1.15;;;23.10;49.40;;;;;;5078423;28;20031;-85
2022/06/12 09:12:35;;;;;;;6.13;1.30;;;22.90;46.00;;;;;;5084090;27;20047;-85
2022/06/12 09:15:04;;;;;;;6.13;1.35;;;22.80;45.90;;;;;;5104903;28;20035;-85
2022/06/12 09:17:53;;;;;;;10.13;1.40;;;22.70;45.70;;;;;;5082552;28;20472;-86
2022/06/12 09:20:36;;;;;;;5.25;1.15;;;22.80;45.80;;;;;;5084724;28;20102;-85
2022/06/12 09:23:14;;;;;;;6.63;1.45;;;23.00;45.60;;;;;;5081099;28;20130;-85
2022/06/12 09:25:50;;;;;;;5.28;1.17;;;23.20;48.50;;;;;;5082754;28;20143;-85
2022/06/12 09:28:35;;;;;;;6.40;1.35;;;23.10;46.10;;;;;;5107096;28;20034;-85
2022/06/12 09:31:12;;;;;;;7.80;1.30;;;23.00;46.10;;;;;;5092046;28;20028;-85
2022/06/12 09:33:45;;;;;;;5.45;1.25;;;23.20;45.50;;;;;;5106112;27;20467;-85
2022/06/12 09:36:32;;;;;;;6.32;1.20;;;23.20;44.70;;;;;;5084437;28;20026;-85
2022/06/12 09:39:33;;;;;;;4.28;1.30;;;23.20;45.50;;;;;;5087212;28;20118;-85
2022/06/12 09:42:21;;;;;;;6.63;1.70;;;23.40;45.20;;;;;;5060839;28;20035;-84
2022/06/12 09:44:56;;;;;;;6.15;1.42;;;23.60;45.30;;;;;;5109351;28;20023;-85
2022/06/12 09:47:30;;;;;;;7.40;1.50;;;24.30;44.90;;;;;;5089577;28;20024;-85
2022/06/12 09:50:07;;;;;;;6.68;1.27;;;23.90;42.80;;;;;;5088805;28;20758;-85
2022/06/12 09:52:49;;;;;;;4.97;0.98;;;24.00;42.80;;;;;;5106625;28;20118;-85
2022/06/12 09:55:35;;;;;;;4.57;1.10;;;23.80;41.90;;;;;;5097834;27;20208;-85
2022/06/12 09:58:17;;;;;;;5.25;1.15;;;24.00;42.20;;;;;;5097755;28;20027;-85
2022/06/12 10:00:56;;;;;;;3.80;1.05;;;24.00;42.40;;;;;;5100378;28;20052;-84
2022/06/12 10:03:35;;;;;;;6.57;1.50;;;24.20;43.10;;;;;;5085725;28;20111;-85
2022/06/12 10:06:10;;;;;;;5.35;1.00;;;24.10;43.80;;;;;;5093964;27;20034;-84
2022/06/12 10:08:49;;;;;;;7.85;1.35;;;23.90;42.50;;;;;;5092091;28;20023;-84
2022/06/12 10:11:23;;;;;;;6.03;1.08;;;24.60;41.60;;;;;;5093651;28;20423;-84
2022/06/12 10:14:07;;;;;;;5.93;1.35;;;24.60;44.60;;;;;;5093486;27;20024;-84
2022/06/12 10:16:48;;;;;;;6.05;1.13;;;24.00;40.90;;;;;;5112440;27;20019;-84
2022/06/12 10:19:17;;;;;;;;;;;23.50;42.90;;;;;;5092815;28;20062;-85
2022/06/12 10:21:49;;;;;;;5.10;1.33;;;23.70;43.40;;;;;;5094097;28;19990;-84
2022/06/12 10:24:15;;;;;;;5.47;1.42;;;24.00;42.00;;;;;;5095875;27;20023;-84
2022/06/12 10:26:51;;;;;;;7.35;1.58;;;23.90;43.30;;;;;;5093260;28;20073;-85
2022/06/12 10:29:20;;;;;;;4.32;1.10;;;23.70;43.00;;;;;;5117066;27;20483;-85
2022/06/12 10:31:58;;;;;;;4.28;0.85;;;23.80;44.10;;;;;;5112891;27;20082;-85
2022/06/12 10:34:28;;;;;;;6.07;1.40;;;23.90;43.20;;;;;;5112697;27;20024;-84
2022/06/12 10:37:10;;;;;;;8.20;1.60;;;23.70;43.20;;;;;;5090433;27;20377;-86
2022/06/12 10:39:36;;;;;;;8.25;1.67;;;23.90;42.90;;;;;;5096725;28;20085;-86
2022/06/12 10:42:07;;;;;;;7.43;1.50;;;24.20;41.70;;;;;;5096148;27;20062;-86
2022/06/12 10:44:41;;;;;;;7.30;1.30;;;24.30;42.60;;;;;;5092407;27;20491;-85
2022/06/12 10:47:29;;;;;;;4.95;1.42;;;24.10;42.60;;;;;;5112468;27;20088;-86
2022/06/12 10:50:13;;;;;;;6.32;1.20;;;24.60;41.10;;;;;;5102458;27;20100;-86
2022/06/12 10:52:56;;;;;;;5.00;0.90;;;24.40;41.90;;;;;;5092307;27;20028;-87
2022/06/12 10:55:47;;;;;;;4.88;1.20;;;24.30;42.10;;;;;;5109075;27;20493;-87
2022/06/12 10:58:33;;;;;;;;;;;24.50;41.30;;;;;;5110548;27;20036;-87
2022/06/12 11:01:08;;;;;;;6.13;1.17;;;25.20;40.40;;;;;;5093887;28;19916;-86
2022/06/12 11:03:48;;;;;;;2.72;0.90;;;25.60;40.60;;;;;;5113354;27;20038;-86
2022/06/12 11:06:40;;;;;;;;;;;25.30;39.70;;;;;;5097344;28;20057;-87
2022/06/12 11:09:23;;;;;;;5.40;1.33;;;25.00;39.10;;;;;;5108291;27;19916;-87
2022/06/12 11:12:16;;;;;;;5.03;1.30;;;25.50;41.00;;;;;;5085587;28;20075;-86
2022/06/12 11:14:58;;;;;;;5.22;1.20;;;26.20;40.20;;;;;;5077444;28;20484;-86
2022/06/12 11:17:43;;;;;;;4.03;1.25;;;26.00;38.00;;;;;;5069217;28;20115;-84
2022/06/12 11:20:38;;;;;;;5.05;1.13;;;26.10;38.50;;;;;;5069705;28;20123;-84
2022/06/12 11:23:33;;;;;;;4.95;1.15;;;26.00;37.40;;;;;;5055392;28;20032;-84
2022/06/12 11:26:13;;;;;;;8.38;1.23;;;26.20;36.80;;;;;;5087730;28;20020;-83
2022/06/12 11:28:53;;;;;;;;;;;26.30;37.50;;;;;;5067809;28;20077;-85
2022/06/12 11:31:34;;;;;;;3.42;1.17;;;26.00;36.50;;;;;;5089705;28;19955;-84
2022/06/12 11:34:15;;;;;;;;;;;26.30;37.80;;;;;;5065847;28;20483;-84
2022/06/12 11:37:25;;;;;;;6.70;1.25;;;26.60;37.50;;;;;;5070020;28;19912;-84
2022/06/12 11:40:17;;;;;;;5.93;1.00;;;27.20;37.10;;;;;;5089909;28;20378;-83
2022/06/12 11:43:21;;;;;;;4.35;1.10;;;26.40;36.30;;;;;;5088233;28;20034;-80
2022/06/12 11:46:15;;;;;;;4.13;1.30;;;26.90;38.00;;;;;;5075576;28;20020;-80
2022/06/12 11:48:41;;;;;;;6.63;1.02;;;26.70;36.00;;;;;;5069480;28;20031;-83
2022/06/12 11:51:15;;;;;;;5.45;1.20;;;27.20;37.10;;;;;;5072352;28;20050;-84
2022/06/12 11:53:55;;;;;;;4.57;1.10;;;26.90;35.90;;;;;;5069504;28;20130;-84
2022/06/12 11:56:42;;;;;;;5.75;1.30;;;27.00;36.50;;;;;;5069257;28;20024;-85
2022/06/12 11:59:29;;;;;;;5.85;1.48;;;27.50;35.80;;;;;;5068627;28;20074;-85
2022/06/12 12:02:08;;;;;;;5.90;1.42;;;27.20;35.00;;;;;;5060954;28;20377;-84
2022/06/12 12:04:39;;;;;;;4.72;1.17;;;25.80;34.90;;;;;;5070762;28;20032;-85
2022/06/12 12:07:11;;;;;;;9.00;1.35;;;25.50;37.00;;;;;;5071561;28;20162;-84
2022/06/12 12:09:45;;;;;;;2.97;1.00;;;24.90;38.00;;;;;;5073007;28;20133;-83
2022/06/12 12:12:17;;;;;;;7.57;1.63;;;24.50;39.30;;;;;;5091405;28;20051;-83
2022/06/12 12:14:45;;;;;;;6.40;1.52;;;24.40;39.70;;;;;;5099887;28;20620;-83
2022/06/12 12:17:18;;;;;;;6.10;1.25;;;24.90;39.10;;;;;;5084639;28;20038;-84
2022/06/12 12:19:46;;;;;;;7.65;1.20;;;24.40;40.30;;;;;;5087839;28;20039;-84
2022/06/12 12:22:37;;;;;;;7.43;1.35;;;24.30;39.70;;;;;;5109365;28;20061;-84
2022/06/12 12:25:21;;;;;;;3.88;1.15;;;25.50;38.40;;;;;;5103481;28;20382;-85
2022/06/12 12:27:52;;;;;;;3.15;1.08;;;25.90;37.20;;;;;;5092655;28;20028;-84
2022/06/12 12:30:27;;;;;;;4.63;1.38;;;26.30;36.90;;;;;;5088910;28;20398;-84
2022/06/12 12:32:57;;;;;;;5.90;1.02;;;27.10;35.10;;;;;;5112174;28;20023;-84
2022/06/12 12:41:12;;;;;;;4.45;0.95;;;27.00;35.40;;;;;;5103981;28;20038;-83
2022/06/12 12:43:51;;;;;;;4.82;1.10;;;27.00;35.60;;;;;;5103141;27;20032;-83
2022/06/12 12:46:17;;;;;;;6.60;1.08;;;27.00;34.90;;;;;;5086887;28;20050;-83
2022/06/12 12:48:46;;;;;;;7.50;1.33;;;26.50;36.40;;;;;;5104365;28;20103;-83
2022/06/12 12:51:35;;;;;;;6.20;1.02;;;25.50;36.50;;;;;;5107450;28;20032;-83
2022/06/12 12:54:08;;;;;;;7.95;1.42;;;25.00;38.80;;;;;;5095302;28;20395;-83
2022/06/12 12:56:35;;;;;;;4.95;1.10;;;25.00;38.00;;;;;;5091308;28;20023;-83
2022/06/12 12:59:07;;;;;;;3.08;1.13;;;25.50;37.60;;;;;;5087701;28;20032;-83
2022/06/12 13:01:39;;;;;;;4.93;1.13;;;26.10;36.70;;;;;;5091343;28;20020;-83
2022/06/12 13:04:21;;;;;;;6.03;1.27;;;27.20;35.60;;;;;;5109602;28;20034;-83
2022/06/12 13:07:15;;;;;;;3.63;1.08;;;27.80;34.80;;;;;;5095147;28;20015;-84
2022/06/12 13:09:59;;;;;;;5.97;1.25;;;28.20;34.40;;;;;;5084407;28;20062;-83
2022/06/12 13:12:27;;;;;;;6.13;1.10;;;27.00;36.20;;;;;;5102972;28;20093;-83
2022/06/12 13:15:42;;;;;;;6.43;1.10;;;26.10;37.20;;;;;;5092597;28;20401;-83
2022/06/12 13:18:19;;;;;;;6.57;1.25;;;25.70;38.20;;;;;;5067082;28;20040;-83
2022/06/12 13:20:56;;;;;;;3.70;1.20;;;25.50;38.40;;;;;;5086410;28;20492;-83
2022/06/12 13:23:36;;;;;;;6.47;1.17;;;25.00;38.90;;;;;;5085410;28;20390;-83
2022/06/12 13:26:08;;;;;;;5.00;1.10;;;25.60;38.80;;;;;;5084863;28;20038;-84
2022/06/12 13:28:35;;;;;;;4.43;1.02;;;26.50;38.10;;;;;;5087966;28;20019;-83
2022/06/12 13:31:02;;;;;;;5.00;1.20;;;26.00;38.70;;;;;;5106271;28;20514;-83
2022/06/12 13:33:34;;;;;;;6.03;1.30;;;25.50;40.10;;;;;;5105518;27;20039;-83
2022/06/12 13:36:12;;;;;;;6.45;1.25;;;26.00;40.00;;;;;;5086807;28;20119;-83
2022/06/12 13:38:54;;;;;;;5.13;1.42;;;25.40;39.90;;;;;;5082339;28;20027;-83